createdAt,value
2023-02-06T00:00:47.376Z,6.00
2023-02-06T00:03:14.918Z,6.97
2023-02-06T00:05:42.286Z,8.30
2023-02-06T00:08:09.641Z,6.67
2023-02-06T00:10:37.176Z,9.40
2023-02-06T00:13:04.495Z,5.40
2023-02-06T00:15:32.685Z,6.90
2023-02-06T00:18:00.680Z,6.43
2023-02-06T00:20:27.943Z,6.10
2023-02-06T00:22:55.174Z,6.33
2023-02-06T00:25:22.433Z,5.63
2023-02-06T00:27:49.670Z,5.73
2023-02-06T00:30:17.259Z,5.53
2023-02-06T00:32:44.602Z,6.07
2023-02-06T00:35:12.855Z,6.43
2023-02-06T00:37:40.122Z,6.23
2023-02-06T00:40:09.013Z,6.23
2023-02-06T00:42:36.277Z,6.57
2023-02-06T00:45:03.941Z,7.10
2023-02-06T00:47:31.277Z,7.60
2023-02-06T00:49:58.534Z,6.53
2023-02-06T00:52:26.653Z,7.27
2023-02-06T00:54:54.728Z,6.40
2023-02-06T00:57:22.005Z,7.40
2023-02-06T00:59:49.282Z,6.70
2023-02-06T01:02:16.549Z,7.60
2023-02-06T01:04:43.855Z,8.17
2023-02-06T01:07:11.474Z,7.47
2023-02-06T01:09:39.703Z,5.87
2023-02-06T01:12:07.468Z,6.60
2023-02-06T01:14:34.767Z,8.27
2023-02-06T01:17:02.044Z,6.83
2023-02-06T01:19:29.334Z,7.03
2023-02-06T01:21:56.617Z,7.47
2023-02-06T01:24:23.861Z,7.30
2023-02-06T01:26:51.855Z,7.90
2023-02-06T01:29:19.190Z,10.67
2023-02-06T01:31:46.820Z,9.33
2023-02-06T01:34:14.228Z,8.93
2023-02-06T01:36:41.485Z,9.23
2023-02-06T01:39:09.682Z,9.50
2023-02-06T01:41:37.070Z,10.03
2023-02-06T01:44:11.118Z,9.60
2023-02-06T01:46:38.744Z,9.40
2023-02-06T01:49:08.028Z,10.43
2023-02-06T01:51:35.461Z,9.87
2023-02-06T01:54:06.470Z,11.43
2023-02-06T01:56:38.267Z,8.13
2023-02-06T01:59:05.583Z,8.23
2023-02-06T02:01:33.776Z,7.43
2023-02-06T02:04:05.590Z,8.47
2023-02-06T02:06:33.387Z,8.70
2023-02-06T02:09:02.758Z,7.90
2023-02-06T02:11:32.949Z,7.40
2023-02-06T02:14:01.318Z,6.73
2023-02-06T02:16:38.669Z,8.67
2023-02-06T02:19:32.969Z,7.63
2023-02-06T02:22:37.290Z,8.17
2023-02-06T02:25:35.460Z,8.97
2023-02-06T02:28:41.482Z,7.80
2023-02-06T02:31:29.431Z,8.20
2023-02-06T02:34:21.024Z,7.37
2023-02-06T02:36:52.243Z,9.47
2023-02-06T02:39:29.871Z,8.97
2023-02-06T02:42:10.998Z,10.10
2023-02-06T02:44:46.246Z,9.13
2023-02-06T02:47:16.842Z,8.17
2023-02-06T02:49:45.793Z,10.20
2023-02-06T02:52:14.788Z,10.70
2023-02-06T02:54:42.085Z,9.77
2023-02-06T02:57:14.320Z,10.17
2023-02-06T02:59:44.721Z,10.33
2023-02-06T03:02:15.636Z,9.10
2023-02-06T03:04:47.447Z,9.50
2023-02-06T03:07:24.607Z,9.03
2023-02-06T03:10:03.641Z,9.50
2023-02-06T03:12:39.507Z,9.73
2023-02-06T03:15:14.715Z,10.00
2023-02-06T03:17:47.487Z,8.73
2023-02-06T03:20:16.214Z,8.83
2023-02-06T03:22:47.543Z,8.43
2023-02-06T03:25:20.305Z,8.50
2023-02-06T03:27:49.853Z,8.63
2023-02-06T03:30:19.575Z,10.47
2023-02-06T03:32:49.739Z,15.43
2023-02-06T03:35:20.683Z,13.90
2023-02-06T03:37:49.406Z,12.63
2023-02-06T03:40:17.916Z,12.43
2023-02-06T03:42:50.123Z,9.60
2023-02-06T03:45:22.393Z,10.83
2023-02-06T03:47:50.185Z,10.00
2023-02-06T03:50:18.982Z,9.30
2023-02-06T03:52:49.934Z,9.23
2023-02-06T03:55:20.463Z,8.30
2023-02-06T03:57:52.125Z,11.40
2023-02-06T04:00:19.789Z,10.03
2023-02-06T04:02:48.484Z,9.93
2023-02-06T04:05:17.401Z,10.13
2023-02-06T04:07:44.836Z,8.90
2023-02-06T04:10:12.812Z,11.63
2023-02-06T04:12:40.139Z,10.83
2023-02-06T04:15:07.926Z,9.13
2023-02-06T04:17:49.838Z,9.10
2023-02-06T04:20:21.219Z,12.53
2023-02-06T04:22:48.558Z,12.20
2023-02-06T04:25:16.635Z,10.87
2023-02-06T04:27:43.907Z,11.83
2023-02-06T04:30:12.416Z,15.13
2023-02-06T04:32:39.699Z,11.90
2023-02-06T04:35:07.239Z,9.60
2023-02-06T04:37:34.485Z,11.13
2023-02-06T04:40:01.790Z,13.40
2023-02-06T04:42:29.736Z,14.57
2023-02-06T04:44:57.020Z,13.77
2023-02-06T04:47:24.297Z,12.63
2023-02-06T04:49:51.585Z,13.77
2023-02-06T04:52:18.920Z,11.53
2023-02-06T04:54:46.240Z,16.23
2023-02-06T04:57:13.686Z,25.60
2023-02-06T04:59:41.670Z,20.67
2023-02-06T05:02:08.966Z,60.27
2023-02-06T05:04:38.205Z,30.50
2023-02-06T05:07:05.745Z,65.80
2023-02-06T05:09:33.378Z,91.20
2023-02-06T05:12:00.691Z,142.13
2023-02-06T05:14:27.983Z,37.00
2023-02-06T05:16:56.041Z,19.90
2023-02-06T05:19:23.430Z,18.40
2023-02-06T05:21:50.741Z,12.50
2023-02-06T05:24:18.143Z,11.60
2023-02-06T05:26:45.876Z,14.60
2023-02-06T05:29:13.134Z,26.90
2023-02-06T05:31:40.470Z,21.03
2023-02-06T05:34:10.022Z,28.93
2023-02-06T05:36:37.416Z,27.87
2023-02-06T05:39:04.823Z,13.10
2023-02-06T05:41:32.362Z,12.53
2023-02-06T05:43:59.671Z,14.60
2023-02-06T05:46:26.950Z,21.10
2023-02-06T05:48:54.237Z,20.23
2023-02-06T05:51:22.174Z,13.27
2023-02-06T05:53:49.562Z,14.47
2023-02-06T05:56:17.005Z,12.00
2023-02-06T05:58:44.273Z,11.80
2023-02-06T06:01:12.364Z,11.53
2023-02-06T06:03:39.743Z,11.10
2023-02-06T06:06:07.731Z,11.00
2023-02-06T06:08:35.768Z,12.33
2023-02-06T06:11:03.062Z,10.93
2023-02-06T06:13:30.566Z,12.40
2023-02-06T06:15:57.909Z,12.07
2023-02-06T06:18:26.343Z,12.10
2023-02-06T06:20:54.007Z,17.53
2023-02-06T06:23:21.306Z,17.93
2023-02-06T06:25:50.130Z,19.07
2023-02-06T06:28:17.508Z,18.27
2023-02-06T06:30:44.840Z,17.20
2023-02-06T06:33:14.606Z,16.00
2023-02-06T06:35:41.906Z,15.70
2023-02-06T06:38:09.679Z,14.40
2023-02-06T06:40:37.086Z,14.67
2023-02-06T06:43:05.214Z,16.53
2023-02-06T06:45:32.529Z,14.27
2023-02-06T06:48:00.165Z,12.63
2023-02-06T06:50:27.950Z,14.90
2023-02-06T06:52:55.477Z,11.77
2023-02-06T06:55:23.015Z,15.37
2023-02-06T06:57:50.586Z,14.40
2023-02-06T07:00:19.664Z,13.97
2023-02-06T07:02:47.114Z,14.77
2023-02-06T07:05:14.561Z,14.03
2023-02-06T07:07:41.863Z,14.53
2023-02-06T07:10:10.515Z,13.20
2023-02-06T07:12:38.334Z,13.83
2023-02-06T07:15:06.526Z,14.73
2023-02-06T07:17:34.557Z,14.90
2023-02-06T07:20:01.884Z,14.90
2023-02-06T07:22:29.102Z,16.20
2023-02-06T07:24:56.473Z,14.10
2023-02-06T07:27:23.736Z,12.73
2023-02-06T07:29:51.093Z,11.93
2023-02-06T07:32:18.712Z,10.97
2023-02-06T07:34:46.836Z,12.20
2023-02-06T07:37:14.111Z,12.10
2023-02-06T07:39:41.509Z,11.37
2023-02-06T07:42:08.840Z,10.27
2023-02-06T07:44:36.138Z,10.53
2023-02-06T07:47:04.530Z,10.90
2023-02-06T07:49:31.884Z,11.90
2023-02-06T07:52:02.845Z,12.97
2023-02-06T07:54:30.231Z,13.23
2023-02-06T07:56:57.495Z,10.43
2023-02-06T07:59:24.819Z,11.57
2023-02-06T08:01:53.141Z,10.40
2023-02-06T08:04:20.522Z,11.00
2023-02-06T08:06:47.802Z,14.20
2023-02-06T08:09:16.883Z,14.47
2023-02-06T08:11:44.379Z,14.40
2023-02-06T08:14:11.684Z,17.60
2023-02-06T08:16:39.066Z,19.80
2023-02-06T08:19:10.321Z,23.33
2023-02-06T08:21:38.146Z,16.93
2023-02-06T08:24:06.071Z,20.53
2023-02-06T08:26:34.333Z,30.17
2023-02-06T08:29:03.786Z,16.00
2023-02-06T08:31:33.337Z,14.23
2023-02-06T08:34:00.743Z,11.73
2023-02-06T08:36:31.237Z,14.53
2023-02-06T08:38:59.107Z,12.47
2023-02-06T08:41:28.665Z,18.73
2023-02-06T08:43:59.115Z,14.37
2023-02-06T08:46:29.140Z,18.33
2023-02-06T08:48:57.571Z,18.37
2023-02-06T08:51:27.195Z,17.27
2023-02-06T08:53:56.628Z,16.77
2023-02-06T08:56:24.109Z,17.10
2023-02-06T08:58:51.458Z,17.17
2023-02-06T09:01:19.857Z,21.07
2023-02-06T09:03:47.638Z,23.30
2023-02-06T09:06:15.593Z,21.37
2023-02-06T09:08:43.051Z,18.57
2023-02-06T09:11:11.625Z,17.27
2023-02-06T09:13:39.161Z,19.43
2023-02-06T09:16:07.826Z,19.13
2023-02-06T09:18:36.160Z,16.47
2023-02-06T09:21:05.635Z,16.20
2023-02-06T09:23:32.996Z,16.20
2023-02-06T09:26:00.290Z,15.60
2023-02-06T09:28:27.645Z,14.37
2023-02-06T09:30:54.957Z,16.57
2023-02-06T09:33:22.458Z,16.60
2023-02-06T09:35:50.362Z,15.20
2023-02-06T09:38:17.612Z,15.63
2023-02-06T09:40:44.971Z,16.50
2023-02-06T09:43:13.619Z,15.03
2023-02-06T09:45:41.777Z,18.40
2023-02-06T09:48:19.108Z,16.77
2023-02-06T09:50:55.702Z,15.93
2023-02-06T09:53:30.500Z,23.87
2023-02-06T09:56:09.978Z,20.47
2023-02-06T09:58:44.357Z,21.00
2023-02-06T10:01:19.491Z,19.13
2023-02-06T10:04:13.265Z,16.80
2023-02-06T10:06:47.380Z,16.13
2023-02-06T10:09:18.930Z,17.90
2023-02-06T10:11:51.611Z,18.43
2023-02-06T10:14:26.591Z,18.03
2023-02-06T10:16:58.231Z,18.67
2023-02-06T10:19:36.818Z,17.87
2023-02-06T10:22:11.907Z,18.90
2023-02-06T10:24:43.884Z,23.30
2023-02-06T10:27:13.178Z,23.80
2023-02-06T10:29:42.297Z,19.00
2023-02-06T10:32:24.031Z,21.60
2023-02-06T10:35:03.421Z,24.10
2023-02-06T10:37:49.172Z,20.47
2023-02-06T10:40:35.113Z,22.20
2023-02-06T10:43:12.062Z,18.93
2023-02-06T10:45:44.723Z,23.17
2023-02-06T10:48:24.406Z,19.80
2023-02-06T10:50:56.164Z,19.50
2023-02-06T10:53:30.125Z,17.93
2023-02-06T10:55:59.828Z,17.57
2023-02-06T10:58:31.060Z,23.70
2023-02-06T11:01:00.304Z,21.60
2023-02-06T11:03:31.582Z,21.23
2023-02-06T11:06:01.366Z,22.70
2023-02-06T11:08:33.099Z,19.80
2023-02-06T11:11:17.879Z,20.37
2023-02-06T11:13:48.166Z,21.30
2023-02-06T11:16:24.280Z,20.10
2023-02-06T11:18:53.219Z,20.57
2023-02-06T11:21:49.985Z,20.00
2023-02-06T11:24:20.937Z,19.87
2023-02-06T11:26:52.116Z,19.83
2023-02-06T11:29:21.545Z,26.07
2023-02-06T11:31:51.769Z,25.43
2023-02-06T11:34:25.152Z,22.87
2023-02-06T11:36:54.261Z,21.50
2023-02-06T11:39:26.934Z,22.00
2023-02-06T11:42:02.848Z,22.00
2023-02-06T11:44:36.678Z,23.20
2023-02-06T11:47:29.828Z,16.07
2023-02-06T11:50:14.916Z,17.87
2023-02-06T11:52:46.744Z,11.40
2023-02-06T11:55:22.545Z,13.40
2023-02-06T11:58:06.571Z,13.90
2023-02-06T12:00:36.006Z,11.33
2023-02-06T12:03:03.768Z,10.20
2023-02-06T12:05:34.930Z,11.90
2023-02-06T12:08:05.113Z,13.20
2023-02-06T12:10:38.290Z,13.43
2023-02-06T12:13:08.910Z,12.63
2023-02-06T12:15:46.949Z,11.27
2023-02-06T12:18:20.202Z,14.00
2023-02-06T12:20:51.914Z,12.13
2023-02-06T12:23:25.621Z,13.93
2023-02-06T12:25:57.624Z,11.47
2023-02-06T12:28:31.307Z,12.57
2023-02-06T12:31:04.097Z,11.67
2023-02-06T12:33:37.948Z,11.13
2023-02-06T12:36:15.154Z,9.73
2023-02-06T12:38:47.535Z,13.93
2023-02-06T12:41:28.407Z,12.73
2023-02-06T12:43:59.226Z,9.30
2023-02-06T12:46:28.238Z,10.03
2023-02-06T12:49:02.367Z,8.83
2023-02-06T12:51:35.490Z,9.63
2023-02-06T12:54:10.745Z,8.40
2023-02-06T12:56:43.875Z,7.60
2023-02-06T12:59:57.098Z,9.53
2023-02-06T13:02:56.560Z,9.13
2023-02-06T13:05:27.828Z,8.60
2023-02-06T13:08:02.783Z,9.07
2023-02-06T13:10:30.108Z,10.70
2023-02-06T13:12:59.294Z,8.60
2023-02-06T13:15:31.608Z,8.53
2023-02-06T13:17:59.336Z,11.50
2023-02-06T13:20:27.529Z,9.80
2023-02-06T13:23:15.837Z,8.17
2023-02-06T13:25:52.237Z,12.83
2023-02-06T13:28:40.310Z,9.80
2023-02-06T13:31:22.553Z,10.77
2023-02-06T13:33:53.101Z,14.83
2023-02-06T13:36:27.002Z,14.73
2023-02-06T13:39:12.092Z,27.07
2023-02-06T13:41:41.559Z,14.43
2023-02-06T13:44:18.821Z,11.27
2023-02-06T13:47:17.573Z,7.50
2023-02-06T13:50:21.546Z,5.10
2023-02-06T13:53:01.593Z,11.07
2023-02-06T13:55:42.715Z,9.30
2023-02-06T13:58:34.746Z,10.17
2023-02-06T14:01:04.772Z,13.30
2023-02-06T14:03:37.530Z,8.07
2023-02-06T14:06:16.895Z,7.80
2023-02-06T14:08:51.408Z,7.70
2023-02-06T14:11:32.763Z,6.77
2023-02-06T14:14:27.643Z,9.17
2023-02-06T14:17:08.350Z,7.87
2023-02-06T14:19:41.752Z,9.17
2023-02-06T14:22:19.577Z,11.47
2023-02-06T14:25:20.291Z,11.67
2023-02-06T14:27:58.996Z,9.20
2023-02-06T14:30:34.415Z,9.70
2023-02-06T14:33:16.146Z,9.67
2023-02-06T14:36:12.426Z,4.03
2023-02-06T14:39:28.930Z,7.57
2023-02-06T14:41:56.594Z,8.60
2023-02-06T14:44:31.662Z,7.33
2023-02-06T14:46:59.185Z,11.40
2023-02-06T14:49:32.343Z,9.40
2023-02-06T14:52:04.664Z,6.70
2023-02-06T14:54:36.464Z,11.20
2023-02-06T14:57:08.414Z,9.70
2023-02-06T14:59:35.728Z,11.23
2023-02-06T15:02:13.568Z,9.73
2023-02-06T15:04:48.920Z,10.60
2023-02-06T15:07:23.764Z,10.20
2023-02-06T15:09:58.586Z,9.90
2023-02-06T15:12:28.652Z,10.13
2023-02-06T15:15:01.971Z,9.83
2023-02-06T15:17:30.625Z,11.90
2023-02-06T15:20:25.710Z,9.90
2023-02-06T15:23:08.081Z,10.37
2023-02-06T15:26:04.430Z,9.97
2023-02-06T15:28:34.867Z,10.07
2023-02-06T15:31:02.826Z,7.30
2023-02-06T15:33:35.291Z,7.67
2023-02-06T15:36:06.726Z,12.67
2023-02-06T15:39:01.828Z,10.10
2023-02-06T15:41:38.761Z,10.77
2023-02-06T15:44:19.599Z,9.53
2023-02-06T15:46:49.278Z,11.27
2023-02-06T15:49:33.417Z,10.80
2023-02-06T15:52:01.831Z,9.17
2023-02-06T15:54:30.104Z,9.10
2023-02-06T15:57:03.153Z,7.77
2023-02-06T15:59:33.303Z,10.90
2023-02-06T16:02:03.026Z,11.90
2023-02-06T16:04:33.888Z,9.77
2023-02-06T16:07:06.629Z,9.20
2023-02-06T16:09:40.493Z,11.60
2023-02-06T16:12:08.722Z,7.23
2023-02-06T16:14:37.826Z,16.10
2023-02-06T16:17:21.836Z,15.37
2023-02-06T16:19:52.558Z,10.70
2023-02-06T16:22:25.743Z,8.17
2023-02-06T16:24:55.472Z,11.00
2023-02-06T16:27:24.873Z,11.80
2023-02-06T16:29:57.782Z,10.30
2023-02-06T16:32:28.069Z,11.57
2023-02-06T16:34:55.827Z,9.20
2023-02-06T16:37:25.613Z,10.07
2023-02-06T16:39:53.705Z,6.93
2023-02-06T16:42:23.042Z,17.77
2023-02-06T16:44:52.907Z,13.10
2023-02-06T16:47:21.741Z,11.17
2023-02-06T16:49:49.207Z,9.17
2023-02-06T16:52:20.280Z,11.47
2023-02-06T16:54:49.615Z,10.47
2023-02-06T16:57:24.503Z,13.97
2023-02-06T16:59:52.015Z,42.23
2023-02-06T17:02:19.313Z,32.17
2023-02-06T17:04:46.861Z,22.57
2023-02-06T17:07:17.942Z,13.50
2023-02-06T17:09:46.290Z,14.60
2023-02-06T17:12:16.512Z,17.27
2023-02-06T17:14:44.027Z,15.50
2023-02-06T17:17:12.895Z,16.53
2023-02-06T17:19:40.812Z,18.30
2023-02-06T17:22:09.127Z,16.70
2023-02-06T17:24:37.427Z,17.97
2023-02-06T17:27:05.809Z,18.77
2023-02-06T17:29:34.506Z,16.90
2023-02-06T17:32:02.281Z,13.03
2023-02-06T17:34:29.671Z,14.23
2023-02-06T17:36:57.048Z,16.10
2023-02-06T17:39:25.069Z,15.70
2023-02-06T17:41:52.519Z,14.93
2023-02-06T17:44:19.919Z,16.33
2023-02-06T17:46:49.243Z,22.67
2023-02-06T17:49:17.181Z,18.53
2023-02-06T17:51:45.600Z,16.70
2023-02-06T17:54:13.380Z,23.23
2023-02-06T17:56:40.677Z,15.00
2023-02-06T17:59:08.072Z,12.27
2023-02-06T18:01:35.956Z,14.43
2023-02-06T18:04:04.244Z,16.20
2023-02-06T18:06:33.837Z,13.27
2023-02-06T18:09:01.213Z,12.10
2023-02-06T18:11:29.033Z,12.80
2023-02-06T18:13:56.366Z,12.90
2023-02-06T18:16:25.934Z,9.83
2023-02-06T18:18:54.039Z,8.80
2023-02-06T18:21:23.830Z,6.67
2023-02-06T18:23:52.374Z,10.67
2023-02-06T18:26:20.075Z,10.57
2023-02-06T18:28:47.375Z,10.50
2023-02-06T18:31:24.708Z,11.70
2023-02-06T18:33:52.638Z,12.07
2023-02-06T18:36:22.047Z,12.47
2023-02-06T18:38:49.348Z,13.43
2023-02-06T18:41:35.355Z,13.03
2023-02-06T18:44:03.783Z,12.67
2023-02-06T18:46:31.490Z,15.50
2023-02-06T18:48:58.884Z,16.80
2023-02-06T18:51:28.353Z,16.27
2023-02-06T18:53:56.182Z,16.97
2023-02-06T18:56:23.760Z,17.50
2023-02-06T18:58:51.074Z,22.90
2023-02-06T19:01:20.159Z,22.80
2023-02-06T19:03:47.493Z,19.87
2023-02-06T19:06:16.844Z,17.30
2023-02-06T19:08:46.606Z,22.00
2023-02-06T19:11:14.748Z,19.60
2023-02-06T19:13:42.560Z,24.60
2023-02-06T19:16:12.509Z,22.07
2023-02-06T19:18:42.214Z,23.50
2023-02-06T19:21:11.703Z,22.30
2023-02-06T19:23:39.561Z,19.47
2023-02-06T19:26:08.669Z,18.93
2023-02-06T19:28:36.485Z,18.20
2023-02-06T19:31:07.725Z,42.33
2023-02-06T19:33:38.546Z,40.07
2023-02-06T19:36:07.007Z,16.97
2023-02-06T19:38:34.444Z,12.30
2023-02-06T19:41:07.292Z,19.60
2023-02-06T19:43:35.805Z,17.20
2023-02-06T19:46:04.565Z,15.03
2023-02-06T19:48:31.974Z,6.10
2023-02-06T19:51:04.477Z,13.43
2023-02-06T19:53:33.610Z,9.53
2023-02-06T19:56:00.918Z,12.50
2023-02-06T19:58:30.648Z,9.80
2023-02-06T20:00:58.958Z,10.00
2023-02-06T20:03:26.550Z,10.63
2023-02-06T20:05:53.859Z,14.03
2023-02-06T20:08:21.129Z,14.67
2023-02-06T20:10:48.448Z,14.20
2023-02-06T20:13:15.809Z,16.20
2023-02-06T20:15:43.777Z,12.97
2023-02-06T20:18:11.612Z,15.50
2023-02-06T20:20:39.420Z,16.63
2023-02-06T20:23:06.804Z,17.10
2023-02-06T20:25:37.648Z,14.70
2023-02-06T20:28:05.506Z,15.33
2023-02-06T20:30:32.937Z,15.13
2023-02-06T20:33:00.968Z,14.63
2023-02-06T20:35:28.740Z,18.13
2023-02-06T20:37:56.094Z,15.57
2023-02-06T20:40:23.446Z,14.67
2023-02-06T20:42:50.757Z,16.97
2023-02-06T20:45:18.043Z,16.30
2023-02-06T20:47:45.313Z,13.70
2023-02-06T20:50:13.807Z,15.00
2023-02-06T20:52:41.149Z,16.47
2023-02-06T20:55:08.765Z,16.60
2023-02-06T20:57:36.282Z,15.30
2023-02-06T21:00:04.566Z,16.33
2023-02-06T21:02:31.934Z,16.57
2023-02-06T21:04:59.229Z,15.13
2023-02-06T21:07:27.913Z,15.23
2023-02-06T21:09:55.148Z,14.67
2023-02-06T21:12:22.402Z,16.23
2023-02-06T21:14:49.655Z,16.80
2023-02-06T21:17:16.933Z,24.30
2023-02-06T21:19:44.211Z,24.37
2023-02-06T21:22:11.537Z,20.10
2023-02-06T21:24:39.549Z,17.60
2023-02-06T21:27:06.838Z,16.33
2023-02-06T21:29:34.171Z,18.73
2023-02-06T21:32:13.342Z,17.37
2023-02-06T21:34:45.345Z,27.80
2023-02-06T21:37:13.736Z,18.27
2023-02-06T21:39:41.940Z,16.40
2023-02-06T21:42:11.433Z,15.07
2023-02-06T21:44:39.038Z,15.50
2023-02-06T21:47:15.196Z,17.50
2023-02-06T21:49:49.943Z,14.50
2023-02-06T21:52:20.124Z,15.77
2023-02-06T21:54:51.126Z,15.23
2023-02-06T21:57:18.435Z,15.60
2023-02-06T22:00:21.828Z,14.60
2023-02-06T22:02:51.885Z,12.23
2023-02-06T22:08:25.147Z,12.07
2023-02-06T22:10:53.242Z,15.73
2023-02-06T22:13:23.608Z,16.57
2023-02-06T22:15:56.742Z,14.70
2023-02-06T22:18:43.086Z,15.27
2023-02-06T22:21:15.362Z,14.90
2023-02-06T22:23:48.647Z,17.20
2023-02-06T22:26:25.391Z,19.20
2023-02-06T22:29:01.222Z,15.77
2023-02-06T22:31:39.611Z,19.00
2023-02-06T22:34:16.605Z,18.10
2023-02-06T22:36:44.188Z,17.67
2023-02-06T22:39:12.749Z,17.77
2023-02-06T22:41:48.289Z,16.07
2023-02-06T22:44:20.596Z,14.97
2023-02-06T22:47:18.920Z,15.27
2023-02-06T22:49:50.257Z,14.63
2023-02-06T22:52:38.851Z,17.67
2023-02-06T22:55:12.584Z,14.97
2023-02-06T22:57:40.706Z,14.77
2023-02-06T23:00:14.051Z,16.13
2023-02-06T23:02:41.665Z,14.50
2023-02-06T23:05:09.828Z,15.87
2023-02-06T23:07:58.020Z,15.27
2023-02-06T23:10:25.398Z,15.83
2023-02-06T23:12:53.317Z,15.60
2023-02-06T23:15:20.566Z,14.30
2023-02-06T23:17:48.873Z,16.50
2023-02-06T23:20:16.370Z,13.57
2023-02-06T23:22:43.639Z,15.70
2023-02-06T23:25:10.963Z,16.23
2023-02-06T23:27:38.244Z,12.00
2023-02-06T23:30:07.073Z,12.30
2023-02-06T23:32:34.705Z,11.27
2023-02-06T23:35:03.837Z,11.50
2023-02-06T23:37:31.284Z,8.17
2023-02-06T23:39:58.553Z,8.37
2023-02-06T23:42:25.817Z,10.23
2023-02-06T23:44:54.104Z,12.67
2023-02-06T23:47:22.013Z,10.67
2023-02-06T23:49:49.271Z,12.33
2023-02-06T23:52:16.518Z,10.67
2023-02-06T23:54:43.800Z,14.13
2023-02-06T23:57:11.083Z,9.53
2023-02-06T23:59:38.356Z,5.33
